Terminal Aerodrome Forecast
Issued by NWS

Home | Current Version | Previous Version | Text Only | Print | Product List | Glossary On
Versions: 1 2 3 4 5 6 7 8 9 10 11 12 13 14 15 16 17 18
779
FTUS46 KLOX 220007 AAA
TAFLGB
TAF AMD
KLGB 220007Z 2200/2224 29011KT P6SM SCT250
     FM220500 VRB03KT P6SM SCT250
     FM220900 VRB03KT 4SM BR VCFG OVC004
     FM221400 14004KT 6SM BR BKN007
     FM221600 16006KT P6SM FEW010
     FM221900 19008KT P6SM SKC=

USA.gov is the U.S. government's official web portal to all federal, state and local government web resources and services.